Terminal Aerodrome Forecast
Issued by NWS

Home | Current Version | Previous Version | Text Only | Print | Product List | Glossary On
Versions: 1 2 3 4 5 6 7 8 9 10 11 12
765
FTUS43 KEAX 302322
TAFMKC
TAF
KMKC 302322Z 0100/0124 28009KT P6SM BKN050
     FM010300 27008KT P6SM SCT050
     FM010600 27007KT P6SM SCT200=

USA.gov is the U.S. government's official web portal to all federal, state and local government web resources and services.